sensor_id;sensor_type;location;lat;lon;timestamp;P1;durP1;ratioP1;P2;durP2;ratioP2
19617;SDS011;9956;51.006;13.670;2023-04-19T00:00:21;23.25;;;19.90;;
19617;SDS011;9956;51.006;13.670;2023-04-19T00:05:21;22.00;;;18.90;;
19617;SDS011;9956;51.006;13.670;2023-04-19T00:10:23;19.05;;;16.13;;
19617;SDS011;9956;51.006;13.670;2023-04-19T00:15:24;16.77;;;14.30;;
19617;SDS011;9956;51.006;13.670;2023-04-19T00:20:25;14.07;;;12.68;;
19617;SDS011;9956;51.006;13.670;2023-04-19T00:25:25;18.85;;;14.60;;
19617;SDS011;9956;51.006;13.670;2023-04-19T00:30:26;17.48;;;14.98;;
19617;SDS011;9956;51.006;13.670;2023-04-19T00:35:26;17.83;;;15.15;;
19617;SDS011;9956;51.006;13.670;2023-04-19T00:40:27;17.33;;;13.52;;
19617;SDS011;9956;51.006;13.670;2023-04-19T00:45:28;16.58;;;14.13;;
19617;SDS011;9956;51.006;13.670;2023-04-19T00:50:28;15.95;;;12.85;;
19617;SDS011;9956;51.006;13.670;2023-04-19T00:55:30;14.85;;;12.85;;
19617;SDS011;9956;51.006;13.670;2023-04-19T01:00:30;13.95;;;12.48;;
19617;SDS011;9956;51.006;13.670;2023-04-19T01:05:31;14.00;;;12.10;;
19617;SDS011;9956;51.006;13.670;2023-04-19T01:10:32;12.55;;;11.32;;
19617;SDS011;9956;51.006;13.670;2023-04-19T01:15:32;14.93;;;11.73;;
19617;SDS011;9956;51.006;13.670;2023-04-19T01:20:33;12.68;;;11.25;;
19617;SDS011;9956;51.006;13.670;2023-04-19T01:25:33;12.43;;;11.13;;
19617;SDS011;9956;51.006;13.670;2023-04-19T01:30:35;11.35;;;10.15;;
19617;SDS011;9956;51.006;13.670;2023-04-19T01:35:36;12.38;;;11.10;;
19617;SDS011;9956;51.006;13.670;2023-04-19T01:40:36;11.77;;;10.57;;
19617;SDS011;9956;51.006;13.670;2023-04-19T01:45:38;14.85;;;10.70;;
19617;SDS011;9956;51.006;13.670;2023-04-19T01:50:38;14.32;;;10.05;;
19617;SDS011;9956;51.006;13.670;2023-04-19T01:55:39;14.02;;;11.52;;
19617;SDS011;9956;51.006;13.670;2023-04-19T02:00:39;13.02;;;11.50;;
19617;SDS011;9956;51.006;13.670;2023-04-19T02:05:39;16.33;;;12.20;;
19617;SDS011;9956;51.006;13.670;2023-04-19T02:10:40;13.50;;;11.18;;
19617;SDS011;9956;51.006;13.670;2023-04-19T02:15:40;13.82;;;12.10;;
19617;SDS011;9956;51.006;13.670;2023-04-19T02:20:41;15.50;;;11.80;;
19617;SDS011;9956;51.006;13.670;2023-04-19T02:25:43;13.25;;;11.85;;
19617;SDS011;9956;51.006;13.670;2023-04-19T02:30:43;13.65;;;12.23;;
19617;SDS011;9956;51.006;13.670;2023-04-19T02:35:44;13.85;;;12.43;;
19617;SDS011;9956;51.006;13.670;2023-04-19T02:40:44;14.35;;;12.75;;
19617;SDS011;9956;51.006;13.670;2023-04-19T02:45:44;15.02;;;13.05;;
19617;SDS011;9956;51.006;13.670;2023-04-19T02:50:46;14.02;;;12.52;;
19617;SDS011;9956;51.006;13.670;2023-04-19T02:55:47;16.70;;;13.10;;
19617;SDS011;9956;51.006;13.670;2023-04-19T03:00:51;13.02;;;11.73;;
19617;SDS011;9956;51.006;13.670;2023-04-19T03:05:57;12.68;;;9.88;;
19617;SDS011;9956;51.006;13.670;2023-04-19T03:10:58;12.80;;;11.25;;
19617;SDS011;9956;51.006;13.670;2023-04-19T03:15:59;15.13;;;11.93;;
19617;SDS011;9956;51.006;13.670;2023-04-19T03:21:02;16.10;;;12.43;;
19617;SDS011;9956;51.006;13.670;2023-04-19T03:26:07;16.55;;;12.55;;
19617;SDS011;9956;51.006;13.670;2023-04-19T03:31:16;18.50;;;13.63;;
19617;SDS011;9956;51.006;13.670;2023-04-19T03:36:18;18.05;;;12.50;;
19617;SDS011;9956;51.006;13.670;2023-04-19T03:41:24;18.95;;;13.25;;
19617;SDS011;9956;51.006;13.670;2023-04-19T03:46:34;16.80;;;13.65;;
19617;SDS011;9956;51.006;13.670;2023-04-19T03:51:35;17.52;;;15.63;;
19617;SDS011;9956;51.006;13.670;2023-04-19T03:56:36;18.70;;;15.32;;
19617;SDS011;9956;51.006;13.670;2023-04-19T04:01:37;19.35;;;15.55;;
19617;SDS011;9956;51.006;13.670;2023-04-19T04:06:41;19.67;;;16.33;;
19617;SDS011;9956;51.006;13.670;2023-04-19T04:11:41;21.15;;;16.02;;
19617;SDS011;9956;51.006;13.670;2023-04-19T04:16:43;22.67;;;16.65;;
19617;SDS011;9956;51.006;13.670;2023-04-19T04:21:43;21.27;;;16.27;;
19617;SDS011;9956;51.006;13.670;2023-04-19T04:26:45;19.05;;;16.55;;
19617;SDS011;9956;51.006;13.670;2023-04-19T04:31:53;17.42;;;15.40;;
19617;SDS011;9956;51.006;13.670;2023-04-19T04:37:00;20.17;;;15.73;;
19617;SDS011;9956;51.006;13.670;2023-04-19T04:42:00;19.38;;;15.55;;
19617;SDS011;9956;51.006;13.670;2023-04-19T04:47:01;17.85;;;15.02;;
19617;SDS011;9956;51.006;13.670;2023-04-19T04:52:05;15.57;;;13.43;;
19617;SDS011;9956;51.006;13.670;2023-04-19T04:57:11;15.38;;;12.18;;
19617;SDS011;9956;51.006;13.670;2023-04-19T05:02:12;12.98;;;10.32;;
19617;SDS011;9956;51.006;13.670;2023-04-19T05:07:14;14.27;;;10.25;;
19617;SDS011;9956;51.006;13.670;2023-04-19T05:12:15;13.63;;;10.15;;
19617;SDS011;9956;51.006;13.670;2023-04-19T05:17:16;12.00;;;8.15;;
19617;SDS011;9956;51.006;13.670;2023-04-19T05:22:17;9.30;;;8.05;;
19617;SDS011;9956;51.006;13.670;2023-04-19T05:27:18;11.38;;;7.68;;
19617;SDS011;9956;51.006;13.670;2023-04-19T05:32:19;10.23;;;7.80;;
19617;SDS011;9956;51.006;13.670;2023-04-19T05:37:25;14.80;;;8.45;;
19617;SDS011;9956;51.006;13.670;2023-04-19T05:42:26;11.88;;;8.38;;
19617;SDS011;9956;51.006;13.670;2023-04-19T05:47:27;11.23;;;7.13;;
19617;SDS011;9956;51.006;13.670;2023-04-19T05:52:46;12.20;;;8.07;;
19617;SDS011;9956;51.006;13.670;2023-04-19T05:57:47;8.68;;;6.35;;
19617;SDS011;9956;51.006;13.670;2023-04-19T06:02:48;10.65;;;4.90;;
19617;SDS011;9956;51.006;13.670;2023-04-19T06:07:49;6.57;;;4.10;;
19617;SDS011;9956;51.006;13.670;2023-04-19T06:12:50;5.25;;;3.70;;
19617;SDS011;9956;51.006;13.670;2023-04-19T06:17:51;5.55;;;3.65;;
19617;SDS011;9956;51.006;13.670;2023-04-19T06:22:51;5.82;;;4.45;;
19617;SDS011;9956;51.006;13.670;2023-04-19T06:27:52;5.50;;;3.97;;
19617;SDS011;9956;51.006;13.670;2023-04-19T06:32:52;5.88;;;3.65;;
19617;SDS011;9956;51.006;13.670;2023-04-19T06:37:53;6.07;;;3.22;;
19617;SDS011;9956;51.006;13.670;2023-04-19T06:42:53;2.85;;;2.50;;
19617;SDS011;9956;51.006;13.670;2023-04-19T06:47:54;4.97;;;3.55;;
19617;SDS011;9956;51.006;13.670;2023-04-19T06:52:55;7.40;;;5.38;;
19617;SDS011;9956;51.006;13.670;2023-04-19T06:57:55;5.53;;;3.50;;
19617;SDS011;9956;51.006;13.670;2023-04-19T07:02:56;4.95;;;4.40;;
19617;SDS011;9956;51.006;13.670;2023-04-19T07:07:58;3.78;;;2.65;;
19617;SDS011;9956;51.006;13.670;2023-04-19T07:12:59;6.20;;;4.00;;
19617;SDS011;9956;51.006;13.670;2023-04-19T07:17:59;7.95;;;6.35;;
19617;SDS011;9956;51.006;13.670;2023-04-19T07:23:00;4.63;;;3.85;;
19617;SDS011;9956;51.006;13.670;2023-04-19T07:28:00;5.55;;;3.35;;
19617;SDS011;9956;51.006;13.670;2023-04-19T07:33:01;3.75;;;3.05;;
19617;SDS011;9956;51.006;13.670;2023-04-19T07:38:03;3.58;;;2.25;;
19617;SDS011;9956;51.006;13.670;2023-04-19T07:43:03;3.97;;;2.50;;
19617;SDS011;9956;51.006;13.670;2023-04-19T07:48:04;3.03;;;2.67;;
19617;SDS011;9956;51.006;13.670;2023-04-19T07:53:05;5.45;;;3.92;;
19617;SDS011;9956;51.006;13.670;2023-04-19T07:58:05;5.85;;;2.95;;
19617;SDS011;9956;51.006;13.670;2023-04-19T08:03:05;8.20;;;5.88;;
19617;SDS011;9956;51.006;13.670;2023-04-19T08:08:06;3.38;;;2.42;;
19617;SDS011;9956;51.006;13.670;2023-04-19T08:13:06;4.82;;;3.17;;
19617;SDS011;9956;51.006;13.670;2023-04-19T08:18:07;3.28;;;2.97;;
19617;SDS011;9956;51.006;13.670;2023-04-19T08:23:08;5.55;;;2.65;;
19617;SDS011;9956;51.006;13.670;2023-04-19T08:28:08;5.55;;;2.78;;
19617;SDS011;9956;51.006;13.670;2023-04-19T08:33:09;3.65;;;2.80;;
19617;SDS011;9956;51.006;13.670;2023-04-19T08:38:09;3.33;;;2.28;;
19617;SDS011;9956;51.006;13.670;2023-04-19T08:43:10;5.03;;;2.97;;
19617;SDS011;9956;51.006;13.670;2023-04-19T08:48:11;5.78;;;3.17;;
19617;SDS011;9956;51.006;13.670;2023-04-19T08:53:11;4.78;;;2.33;;
19617;SDS011;9956;51.006;13.670;2023-04-19T08:58:12;6.45;;;2.90;;
19617;SDS011;9956;51.006;13.670;2023-04-19T09:03:12;3.45;;;2.63;;
19617;SDS011;9956;51.006;13.670;2023-04-19T09:08:19;3.92;;;2.55;;
19617;SDS011;9956;51.006;13.670;2023-04-19T09:13:24;3.97;;;2.97;;
19617;SDS011;9956;51.006;13.670;2023-04-19T09:18:25;4.57;;;2.97;;
19617;SDS011;9956;51.006;13.670;2023-04-19T09:23:26;5.57;;;2.75;;
19617;SDS011;9956;51.006;13.670;2023-04-19T09:28:30;3.75;;;2.85;;
19617;SDS011;9956;51.006;13.670;2023-04-19T09:38:48;5.22;;;3.53;;
19617;SDS011;9956;51.006;13.670;2023-04-19T09:43:49;3.08;;;2.55;;
19617;SDS011;9956;51.006;13.670;2023-04-19T09:48:49;6.10;;;3.20;;
19617;SDS011;9956;51.006;13.670;2023-04-19T09:53:50;5.10;;;3.25;;
19617;SDS011;9956;51.006;13.670;2023-04-19T09:58:51;6.13;;;3.53;;
19617;SDS011;9956;51.006;13.670;2023-04-19T10:03:51;6.35;;;5.15;;
19617;SDS011;9956;51.006;13.670;2023-04-19T10:08:52;9.68;;;4.28;;
19617;SDS011;9956;51.006;13.670;2023-04-19T10:13:56;4.55;;;3.25;;
19617;SDS011;9956;51.006;13.670;2023-04-19T10:18:58;5.95;;;3.33;;
19617;SDS011;9956;51.006;13.670;2023-04-19T10:24:00;6.00;;;3.50;;
19617;SDS011;9956;51.006;13.670;2023-04-19T10:29:01;3.67;;;2.72;;
19617;SDS011;9956;51.006;13.670;2023-04-19T10:34:02;4.35;;;2.90;;
19617;SDS011;9956;51.006;13.670;2023-04-19T10:39:06;3.85;;;2.80;;
19617;SDS011;9956;51.006;13.670;2023-04-19T10:44:41;3.25;;;2.80;;
19617;SDS011;9956;51.006;13.670;2023-04-19T10:49:45;6.43;;;3.10;;
19617;SDS011;9956;51.006;13.670;2023-04-19T10:54:54;5.68;;;3.10;;
19617;SDS011;9956;51.006;13.670;2023-04-19T11:05:20;7.30;;;3.10;;
19617;SDS011;9956;51.006;13.670;2023-04-19T11:10:28;7.47;;;3.33;;
19617;SDS011;9956;51.006;13.670;2023-04-19T11:15:30;3.83;;;2.83;;
19617;SDS011;9956;51.006;13.670;2023-04-19T11:20:30;5.65;;;3.28;;
19617;SDS011;9956;51.006;13.670;2023-04-19T11:25:30;4.25;;;2.90;;
19617;SDS011;9956;51.006;13.670;2023-04-19T11:30:33;5.25;;;3.58;;
19617;SDS011;9956;51.006;13.670;2023-04-19T11:35:33;5.70;;;4.63;;
19617;SDS011;9956;51.006;13.670;2023-04-19T11:40:34;4.57;;;3.33;;
19617;SDS011;9956;51.006;13.670;2023-04-19T11:45:36;10.90;;;4.35;;
19617;SDS011;9956;51.006;13.670;2023-04-19T11:50:44;6.68;;;4.03;;
19617;SDS011;9956;51.006;13.670;2023-04-19T12:00:50;4.63;;;2.85;;
19617;SDS011;9956;51.006;13.670;2023-04-19T12:05:54;7.20;;;3.38;;
19617;SDS011;9956;51.006;13.670;2023-04-19T12:10:55;4.57;;;3.05;;
19617;SDS011;9956;51.006;13.670;2023-04-19T12:15:57;4.85;;;3.35;;
19617;SDS011;9956;51.006;13.670;2023-04-19T12:20:57;3.88;;;3.05;;
19617;SDS011;9956;51.006;13.670;2023-04-19T12:26:01;5.90;;;3.10;;
19617;SDS011;9956;51.006;13.670;2023-04-19T12:31:04;5.10;;;3.20;;
19617;SDS011;9956;51.006;13.670;2023-04-19T12:36:05;5.90;;;2.88;;
19617;SDS011;9956;51.006;13.670;2023-04-19T12:41:05;5.63;;;3.60;;
19617;SDS011;9956;51.006;13.670;2023-04-19T12:46:06;6.82;;;3.58;;
19617;SDS011;9956;51.006;13.670;2023-04-19T12:51:06;4.78;;;3.30;;
19617;SDS011;9956;51.006;13.670;2023-04-19T12:56:08;3.47;;;2.97;;
19617;SDS011;9956;51.006;13.670;2023-04-19T13:01:09;5.45;;;3.30;;
19617;SDS011;9956;51.006;13.670;2023-04-19T13:06:11;4.65;;;3.00;;
19617;SDS011;9956;51.006;13.670;2023-04-19T13:11:14;4.10;;;3.20;;
19617;SDS011;9956;51.006;13.670;2023-04-19T13:16:16;4.63;;;3.83;;
19617;SDS011;9956;51.006;13.670;2023-04-19T13:21:17;4.45;;;3.05;;
19617;SDS011;9956;51.006;13.670;2023-04-19T13:26:18;5.97;;;3.47;;
19617;SDS011;9956;51.006;13.670;2023-04-19T13:31:18;3.85;;;3.30;;
19617;SDS011;9956;51.006;13.670;2023-04-19T13:36:19;4.65;;;3.05;;
19617;SDS011;9956;51.006;13.670;2023-04-19T13:41:19;4.85;;;3.03;;
19617;SDS011;9956;51.006;13.670;2023-04-19T13:46:20;5.97;;;4.53;;
19617;SDS011;9956;51.006;13.670;2023-04-19T13:51:20;5.55;;;3.60;;
19617;SDS011;9956;51.006;13.670;2023-04-19T13:56:21;4.30;;;3.30;;
19617;SDS011;9956;51.006;13.670;2023-04-19T14:01:21;5.75;;;3.17;;
19617;SDS011;9956;51.006;13.670;2023-04-19T14:06:22;3.92;;;3.05;;
19617;SDS011;9956;51.006;13.670;2023-04-19T14:11:23;4.53;;;2.97;;
19617;SDS011;9956;51.006;13.670;2023-04-19T14:16:24;5.70;;;3.25;;
19617;SDS011;9956;51.006;13.670;2023-04-19T14:21:25;6.70;;;4.03;;
19617;SDS011;9956;51.006;13.670;2023-04-19T14:26:27;5.20;;;3.90;;
19617;SDS011;9956;51.006;13.670;2023-04-19T14:31:28;5.20;;;4.70;;
19617;SDS011;9956;51.006;13.670;2023-04-19T14:36:28;5.40;;;4.50;;
19617;SDS011;9956;51.006;13.670;2023-04-19T14:41:29;6.63;;;4.93;;
19617;SDS011;9956;51.006;13.670;2023-04-19T14:46:29;6.05;;;5.00;;
19617;SDS011;9956;51.006;13.670;2023-04-19T14:51:30;8.23;;;4.93;;
19617;SDS011;9956;51.006;13.670;2023-04-19T14:56:31;5.18;;;4.40;;
19617;SDS011;9956;51.006;13.670;2023-04-19T15:01:31;6.72;;;4.97;;
19617;SDS011;9956;51.006;13.670;2023-04-19T15:06:32;7.25;;;4.38;;
19617;SDS011;9956;51.006;13.670;2023-04-19T15:11:32;6.03;;;3.55;;
19617;SDS011;9956;51.006;13.670;2023-04-19T15:16:33;6.90;;;4.57;;
19617;SDS011;9956;51.006;13.670;2023-04-19T15:21:33;6.78;;;3.65;;
19617;SDS011;9956;51.006;13.670;2023-04-19T15:26:34;4.32;;;3.75;;
19617;SDS011;9956;51.006;13.670;2023-04-19T15:31:34;7.68;;;5.80;;
19617;SDS011;9956;51.006;13.670;2023-04-19T15:36:35;5.30;;;4.45;;
19617;SDS011;9956;51.006;13.670;2023-04-19T15:41:35;8.32;;;6.22;;
19617;SDS011;9956;51.006;13.670;2023-04-19T15:46:36;7.72;;;6.93;;
19617;SDS011;9956;51.006;13.670;2023-04-19T15:51:36;11.57;;;10.40;;
19617;SDS011;9956;51.006;13.670;2023-04-19T15:56:38;8.90;;;7.78;;
19617;SDS011;9956;51.006;13.670;2023-04-19T16:01:38;12.55;;;10.77;;
19617;SDS011;9956;51.006;13.670;2023-04-19T16:06:38;19.98;;;7.68;;
19617;SDS011;9956;51.006;13.670;2023-04-19T16:11:39;10.30;;;7.95;;
19617;SDS011;9956;51.006;13.670;2023-04-19T16:16:39;7.47;;;6.18;;
19617;SDS011;9956;51.006;13.670;2023-04-19T16:21:40;8.57;;;6.78;;
19617;SDS011;9956;51.006;13.670;2023-04-19T16:26:40;9.15;;;6.72;;
19617;SDS011;9956;51.006;13.670;2023-04-19T16:31:41;7.60;;;6.90;;
19617;SDS011;9956;51.006;13.670;2023-04-19T16:36:41;8.93;;;7.00;;
19617;SDS011;9956;51.006;13.670;2023-04-19T16:41:43;15.55;;;13.85;;
19617;SDS011;9956;51.006;13.670;2023-04-19T16:46:44;14.50;;;11.77;;
19617;SDS011;9956;51.006;13.670;2023-04-19T16:51:44;6.40;;;5.32;;
19617;SDS011;9956;51.006;13.670;2023-04-19T16:56:45;6.95;;;5.90;;
19617;SDS011;9956;51.006;13.670;2023-04-19T17:01:45;31.17;;;21.05;;
19617;SDS011;9956;51.006;13.670;2023-04-19T17:06:46;23.35;;;16.25;;
19617;SDS011;9956;51.006;13.670;2023-04-19T17:11:46;26.27;;;16.88;;
19617;SDS011;9956;51.006;13.670;2023-04-19T17:16:47;8.15;;;7.40;;
19617;SDS011;9956;51.006;13.670;2023-04-19T17:21:47;7.50;;;6.80;;
19617;SDS011;9956;51.006;13.670;2023-04-19T17:26:48;8.90;;;6.90;;
19617;SDS011;9956;51.006;13.670;2023-04-19T17:31:49;9.80;;;7.55;;
19617;SDS011;9956;51.006;13.670;2023-04-19T17:36:49;10.80;;;9.70;;
19617;SDS011;9956;51.006;13.670;2023-04-19T17:41:50;11.15;;;9.95;;
19617;SDS011;9956;51.006;13.670;2023-04-19T17:46:50;11.60;;;10.40;;
19617;SDS011;9956;51.006;13.670;2023-04-19T17:51:51;10.52;;;9.48;;
19617;SDS011;9956;51.006;13.670;2023-04-19T17:56:52;9.35;;;8.13;;
19617;SDS011;9956;51.006;13.670;2023-04-19T18:01:55;11.68;;;10.10;;
19617;SDS011;9956;51.006;13.670;2023-04-19T18:06:56;12.10;;;10.05;;
19617;SDS011;9956;51.006;13.670;2023-04-19T18:11:56;11.27;;;8.98;;
19617;SDS011;9956;51.006;13.670;2023-04-19T18:16:57;10.52;;;8.60;;
19617;SDS011;9956;51.006;13.670;2023-04-19T18:21:57;9.73;;;8.85;;
19617;SDS011;9956;51.006;13.670;2023-04-19T18:26:58;12.20;;;10.98;;
19617;SDS011;9956;51.006;13.670;2023-04-19T18:31:59;9.45;;;8.45;;
19617;SDS011;9956;51.006;13.670;2023-04-19T18:37:00;9.68;;;7.80;;
19617;SDS011;9956;51.006;13.670;2023-04-19T18:42:02;8.75;;;7.90;;
19617;SDS011;9956;51.006;13.670;2023-04-19T18:47:02;9.48;;;7.78;;
19617;SDS011;9956;51.006;13.670;2023-04-19T18:52:03;10.43;;;7.60;;
19617;SDS011;9956;51.006;13.670;2023-04-19T18:57:03;10.30;;;7.97;;
19617;SDS011;9956;51.006;13.670;2023-04-19T19:02:04;9.80;;;8.02;;
19617;SDS011;9956;51.006;13.670;2023-04-19T19:07:04;11.60;;;9.48;;
19617;SDS011;9956;51.006;13.670;2023-04-19T19:12:05;10.05;;;9.00;;
19617;SDS011;9956;51.006;13.670;2023-04-19T19:17:05;10.88;;;9.15;;
19617;SDS011;9956;51.006;13.670;2023-04-19T19:22:06;15.63;;;9.43;;
19617;SDS011;9956;51.006;13.670;2023-04-19T19:27:06;14.23;;;11.07;;
19617;SDS011;9956;51.006;13.670;2023-04-19T19:32:07;11.38;;;9.25;;
19617;SDS011;9956;51.006;13.670;2023-04-19T19:37:08;11.95;;;9.88;;
19617;SDS011;9956;51.006;13.670;2023-04-19T19:42:09;14.10;;;12.63;;
19617;SDS011;9956;51.006;13.670;2023-04-19T19:47:18;13.00;;;11.73;;
19617;SDS011;9956;51.006;13.670;2023-04-19T19:52:19;12.70;;;9.73;;
19617;SDS011;9956;51.006;13.670;2023-04-19T19:57:20;9.68;;;8.77;;
19617;SDS011;9956;51.006;13.670;2023-04-19T20:02:21;11.38;;;9.98;;
19617;SDS011;9956;51.006;13.670;2023-04-19T20:07:22;12.90;;;10.50;;
19617;SDS011;9956;51.006;13.670;2023-04-19T20:12:23;11.68;;;9.48;;
19617;SDS011;9956;51.006;13.670;2023-04-19T20:17:23;11.80;;;10.48;;
19617;SDS011;9956;51.006;13.670;2023-04-19T20:22:24;12.38;;;11.07;;
19617;SDS011;9956;51.006;13.670;2023-04-19T20:27:25;11.48;;;10.30;;
19617;SDS011;9956;51.006;13.670;2023-04-19T20:32:25;14.48;;;11.82;;
19617;SDS011;9956;51.006;13.670;2023-04-19T20:37:26;16.70;;;12.88;;
19617;SDS011;9956;51.006;13.670;2023-04-19T20:42:29;18.35;;;13.73;;
19617;SDS011;9956;51.006;13.670;2023-04-19T20:47:31;19.73;;;14.57;;
19617;SDS011;9956;51.006;13.670;2023-04-19T20:52:32;25.58;;;15.13;;
19617;SDS011;9956;51.006;13.670;2023-04-19T20:57:34;16.38;;;13.40;;
19617;SDS011;9956;51.006;13.670;2023-04-19T21:02:34;20.73;;;15.77;;
19617;SDS011;9956;51.006;13.670;2023-04-19T21:07:35;14.13;;;11.95;;
19617;SDS011;9956;51.006;13.670;2023-04-19T21:12:36;17.17;;;12.85;;
19617;SDS011;9956;51.006;13.670;2023-04-19T21:17:37;20.17;;;13.73;;
19617;SDS011;9956;51.006;13.670;2023-04-19T21:22:41;20.88;;;14.27;;
19617;SDS011;9956;51.006;13.670;2023-04-19T21:27:41;20.77;;;14.70;;
19617;SDS011;9956;51.006;13.670;2023-04-19T21:32:42;16.52;;;13.52;;
19617;SDS011;9956;51.006;13.670;2023-04-19T21:37:42;23.00;;;13.57;;
19617;SDS011;9956;51.006;13.670;2023-04-19T21:42:43;17.45;;;13.02;;
19617;SDS011;9956;51.006;13.670;2023-04-19T21:47:43;16.60;;;12.40;;
19617;SDS011;9956;51.006;13.670;2023-04-19T21:52:44;21.23;;;14.60;;
19617;SDS011;9956;51.006;13.670;2023-04-19T21:57:44;23.05;;;14.88;;
19617;SDS011;9956;51.006;13.670;2023-04-19T22:02:44;20.85;;;14.88;;
19617;SDS011;9956;51.006;13.670;2023-04-19T22:07:45;27.15;;;16.73;;
19617;SDS011;9956;51.006;13.670;2023-04-19T22:12:46;26.95;;;15.98;;
19617;SDS011;9956;51.006;13.670;2023-04-19T22:17:47;20.73;;;14.18;;
19617;SDS011;9956;51.006;13.670;2023-04-19T22:22:47;28.58;;;17.10;;
19617;SDS011;9956;51.006;13.670;2023-04-19T22:27:48;23.42;;;16.33;;
19617;SDS011;9956;51.006;13.670;2023-04-19T22:32:48;27.73;;;18.13;;
19617;SDS011;9956;51.006;13.670;2023-04-19T22:37:49;24.40;;;16.95;;
19617;SDS011;9956;51.006;13.670;2023-04-19T22:42:49;26.50;;;17.85;;
19617;SDS011;9956;51.006;13.670;2023-04-19T22:47:50;27.88;;;17.50;;
19617;SDS011;9956;51.006;13.670;2023-04-19T22:52:50;22.58;;;15.65;;
19617;SDS011;9956;51.006;13.670;2023-04-19T22:57:51;27.25;;;17.70;;
19617;SDS011;9956;51.006;13.670;2023-04-19T23:02:51;29.13;;;17.50;;
19617;SDS011;9956;51.006;13.670;2023-04-19T23:07:52;24.02;;;16.65;;
19617;SDS011;9956;51.006;13.670;2023-04-19T23:12:54;28.40;;;18.92;;
19617;SDS011;9956;51.006;13.670;2023-04-19T23:17:55;24.70;;;16.58;;
19617;SDS011;9956;51.006;13.670;2023-04-19T23:22:55;24.05;;;17.42;;
19617;SDS011;9956;51.006;13.670;2023-04-19T23:27:56;23.92;;;16.30;;
19617;SDS011;9956;51.006;13.670;2023-04-19T23:32:56;25.17;;;14.73;;
19617;SDS011;9956;51.006;13.670;2023-04-19T23:37:57;23.30;;;15.90;;
19617;SDS011;9956;51.006;13.670;2023-04-19T23:42:58;22.70;;;16.10;;
19617;SDS011;9956;51.006;13.670;2023-04-19T23:47:58;23.33;;;17.35;;
19617;SDS011;9956;51.006;13.670;2023-04-19T23:52:59;30.08;;;17.65;;
19617;SDS011;9956;51.006;13.670;2023-04-19T23:57:59;28.75;;;18.50;;
